sensor_id;sensor_type;location;lat;lon;timestamp;pressure;altitude;pressure_sealevel;temperature;humidity
10940;BME280;5522;42.696;23.494;2022-12-29T00:01:41;53831.69;;;-139.68;100.00
10940;BME280;5522;42.696;23.494;2022-12-29T00:04:11;53883.97;;;-139.68;100.00
10940;BME280;5522;42.696;23.494;2022-12-29T00:06:39;53839.75;;;-139.68;100.00
10940;BME280;5522;42.696;23.494;2022-12-29T00:09:06;53843.75;;;-139.68;100.00
10940;BME280;5522;42.696;23.494;2022-12-29T00:11:34;53839.75;;;-139.68;100.00
10940;BME280;5522;42.696;23.494;2022-12-29T00:14:01;53839.75;;;-139.68;100.00
10940;BME280;5522;42.696;23.494;2022-12-29T00:16:51;53819.63;;;-139.68;100.00
10940;BME280;5522;42.696;23.494;2022-12-29T00:19:17;53839.75;;;-139.68;100.00
10940;BME280;5522;42.696;23.494;2022-12-29T00:22:02;53835.72;;;-139.68;100.00
10940;BME280;5522;42.696;23.494;2022-12-29T00:24:46;53821.66;;;-139.68;100.00
10940;BME280;5522;42.696;23.494;2022-12-29T00:27:32;53849.78;;;-139.68;100.00
10940;BME280;5522;42.696;23.494;2022-12-29T00:30:18;53851.81;;;-139.68;100.00
10940;BME280;5522;42.696;23.494;2022-12-29T00:33:09;53827.69;;;-139.68;100.00
10940;BME280;5522;42.696;23.494;2022-12-29T00:35:55;53859.84;;;-139.68;100.00
10940;BME280;5522;42.696;23.494;2022-12-29T00:38:24;53787.47;;;-139.68;100.00
10940;BME280;5522;42.696;23.494;2022-12-29T00:41:08;53833.72;;;-139.68;100.00
10940;BME280;5522;42.696;23.494;2022-12-29T00:43:54;53827.69;;;-139.68;100.00
10940;BME280;5522;42.696;23.494;2022-12-29T00:46:36;53855.81;;;-139.68;100.00
10940;BME280;5522;42.696;23.494;2022-12-29T00:49:04;53849.78;;;-139.68;100.00
10940;BME280;5522;42.696;23.494;2022-12-29T00:51:49;53835.72;;;-139.68;100.00
10940;BME280;5522;42.696;23.494;2022-12-29T00:54:16;53829.69;;;-139.68;100.00
10940;BME280;5522;42.696;23.494;2022-12-29T00:56:43;53827.69;;;-139.68;100.00
10940;BME280;5522;42.696;23.494;2022-12-29T00:59:13;53839.75;;;-139.68;100.00
10940;BME280;5522;42.696;23.494;2022-12-29T01:06:53;53801.53;;;-139.68;100.00
10940;BME280;5522;42.696;23.494;2022-12-29T01:09:20;53851.81;;;-139.68;100.00
10940;BME280;5522;42.696;23.494;2022-12-29T01:12:06;53821.66;;;-139.68;100.00
10940;BME280;5522;42.696;23.494;2022-12-29T01:14:36;53827.69;;;-139.68;100.00
10940;BME280;5522;42.696;23.494;2022-12-29T01:17:03;53863.88;;;-139.68;100.00
10940;BME280;5522;42.696;23.494;2022-12-29T01:19:30;53853.81;;;-139.68;100.00
10940;BME280;5522;42.696;23.494;2022-12-29T01:21:57;53833.72;;;-139.68;100.00
10940;BME280;5522;42.696;23.494;2022-12-29T01:24:25;53859.84;;;-139.68;100.00
10940;BME280;5522;42.696;23.494;2022-12-29T01:26:52;53873.91;;;-139.68;100.00
10940;BME280;5522;42.696;23.494;2022-12-29T01:29:20;53819.63;;;-139.68;100.00
10940;BME280;5522;42.696;23.494;2022-12-29T01:31:48;53829.69;;;-139.68;100.00
10940;BME280;5522;42.696;23.494;2022-12-29T01:34:15;53827.69;;;-139.68;100.00
10940;BME280;5522;42.696;23.494;2022-12-29T01:36:42;53839.75;;;-139.68;100.00
10940;BME280;5522;42.696;23.494;2022-12-29T01:39:09;53863.88;;;-139.68;100.00
10940;BME280;5522;42.696;23.494;2022-12-29T01:41:36;53831.69;;;-139.68;100.00
10940;BME280;5522;42.696;23.494;2022-12-29T01:46:47;53853.81;;;-139.68;100.00
10940;BME280;5522;42.696;23.494;2022-12-29T01:49:19;53831.69;;;-139.68;100.00
10940;BME280;5522;42.696;23.494;2022-12-29T01:51:51;53833.72;;;-139.68;100.00
10940;BME280;5522;42.696;23.494;2022-12-29T01:54:22;53867.88;;;-139.68;100.00
10940;BME280;5522;42.696;23.494;2022-12-29T01:56:52;53815.63;;;-139.68;100.00
10940;BME280;5522;42.696;23.494;2022-12-29T01:59:23;53831.69;;;-139.68;100.00
10940;BME280;5522;42.696;23.494;2022-12-29T02:01:54;53831.69;;;-139.68;100.00
10940;BME280;5522;42.696;23.494;2022-12-29T02:04:22;53827.69;;;-139.68;100.00
10940;BME280;5522;42.696;23.494;2022-12-29T02:06:53;53831.69;;;-139.68;100.00
10940;BME280;5522;42.696;23.494;2022-12-29T02:09:20;53783.44;;;-139.68;100.00
10940;BME280;5522;42.696;23.494;2022-12-29T02:11:47;53835.72;;;-139.68;100.00
10940;BME280;5522;42.696;23.494;2022-12-29T02:14:14;53811.59;;;-139.68;100.00
10940;BME280;5522;42.696;23.494;2022-12-29T02:16:55;53835.72;;;-139.68;100.00
10940;BME280;5522;42.696;23.494;2022-12-29T02:20:05;53825.66;;;-139.68;100.00
10940;BME280;5522;42.696;23.494;2022-12-29T02:22:45;53841.75;;;-139.68;100.00
10940;BME280;5522;42.696;23.494;2022-12-29T02:25:53;53805.56;;;-139.68;100.00
10940;BME280;5522;42.696;23.494;2022-12-29T02:28:52;53867.88;;;-139.68;100.00
10940;BME280;5522;42.696;23.494;2022-12-29T02:31:25;53847.78;;;-139.68;100.00
10940;BME280;5522;42.696;23.494;2022-12-29T02:34:02;53853.81;;;-139.68;100.00
10940;BME280;5522;42.696;23.494;2022-12-29T02:36:40;53823.66;;;-139.68;100.00
10940;BME280;5522;42.696;23.494;2022-12-29T02:39:14;53849.78;;;-139.68;100.00
10940;BME280;5522;42.696;23.494;2022-12-29T02:41:49;53839.75;;;-139.68;100.00
10940;BME280;5522;42.696;23.494;2022-12-29T02:44:26;53829.69;;;-139.68;100.00
10940;BME280;5522;42.696;23.494;2022-12-29T02:47:00;53831.69;;;-139.68;100.00
10940;BME280;5522;42.696;23.494;2022-12-29T02:49:34;53793.50;;;-139.68;100.00
10940;BME280;5522;42.696;23.494;2022-12-29T02:52:05;53835.72;;;-139.68;100.00
10940;BME280;5522;42.696;23.494;2022-12-29T02:54:33;53805.56;;;-139.68;100.00
10940;BME280;5522;42.696;23.494;2022-12-29T02:57:10;53817.63;;;-139.68;100.00
10940;BME280;5522;42.696;23.494;2022-12-29T02:59:38;53805.56;;;-139.68;100.00
10940;BME280;5522;42.696;23.494;2022-12-29T03:02:18;53855.81;;;-139.68;100.00
10940;BME280;5522;42.696;23.494;2022-12-29T03:05:02;53837.72;;;-139.68;100.00
10940;BME280;5522;42.696;23.494;2022-12-29T03:07:38;53805.56;;;-139.68;100.00
10940;BME280;5522;42.696;23.494;2022-12-29T03:10:16;53817.63;;;-139.68;100.00
10940;BME280;5522;42.696;23.494;2022-12-29T03:12:48;53835.72;;;-139.68;100.00
10940;BME280;5522;42.696;23.494;2022-12-29T03:15:42;53815.63;;;-139.68;100.00
10940;BME280;5522;42.696;23.494;2022-12-29T03:18:35;53847.78;;;-139.68;100.00
10940;BME280;5522;42.696;23.494;2022-12-29T03:21:09;53815.63;;;-139.68;100.00
10940;BME280;5522;42.696;23.494;2022-12-29T03:23:41;53829.69;;;-139.68;100.00
10940;BME280;5522;42.696;23.494;2022-12-29T03:26:11;53831.69;;;-139.68;100.00
10940;BME280;5522;42.696;23.494;2022-12-29T03:28:42;53827.69;;;-139.68;100.00
10940;BME280;5522;42.696;23.494;2022-12-29T03:31:12;53831.69;;;-139.68;100.00
10940;BME280;5522;42.696;23.494;2022-12-29T03:33:43;53843.75;;;-139.68;100.00
10940;BME280;5522;42.696;23.494;2022-12-29T03:36:15;53831.69;;;-139.68;100.00
10940;BME280;5522;42.696;23.494;2022-12-29T03:38:47;53811.59;;;-139.68;100.00
10940;BME280;5522;42.696;23.494;2022-12-29T03:41:19;53847.78;;;-139.68;100.00
10940;BME280;5522;42.696;23.494;2022-12-29T03:43:47;53807.56;;;-139.68;100.00
10940;BME280;5522;42.696;23.494;2022-12-29T03:46:14;53839.75;;;-139.68;100.00
10940;BME280;5522;42.696;23.494;2022-12-29T03:48:42;53851.81;;;-139.68;100.00
10940;BME280;5522;42.696;23.494;2022-12-29T03:51:09;53843.75;;;-139.68;100.00
10940;BME280;5522;42.696;23.494;2022-12-29T03:53:36;53859.84;;;-139.68;100.00
10940;BME280;5522;42.696;23.494;2022-12-29T03:56:04;53855.81;;;-139.68;100.00
10940;BME280;5522;42.696;23.494;2022-12-29T03:58:31;53811.59;;;-139.68;100.00
10940;BME280;5522;42.696;23.494;2022-12-29T04:00:58;53821.66;;;-139.68;100.00
10940;BME280;5522;42.696;23.494;2022-12-29T04:03:24;53849.78;;;-139.68;100.00
10940;BME280;5522;42.696;23.494;2022-12-29T04:05:53;53799.53;;;-139.68;100.00
10940;BME280;5522;42.696;23.494;2022-12-29T04:08:19;53863.88;;;-139.68;100.00
10940;BME280;5522;42.696;23.494;2022-12-29T04:10:48;53831.69;;;-139.68;100.00
10940;BME280;5522;42.696;23.494;2022-12-29T04:13:14;53835.72;;;-139.68;100.00
10940;BME280;5522;42.696;23.494;2022-12-29T04:15:42;53833.72;;;-139.68;100.00
10940;BME280;5522;42.696;23.494;2022-12-29T04:18:10;53839.75;;;-139.68;100.00
10940;BME280;5522;42.696;23.494;2022-12-29T04:20:37;53831.69;;;-139.68;100.00
10940;BME280;5522;42.696;23.494;2022-12-29T04:23:23;53883.97;;;-139.68;100.00
10940;BME280;5522;42.696;23.494;2022-12-29T04:25:50;53813.59;;;-139.68;100.00
10940;BME280;5522;42.696;23.494;2022-12-29T04:28:17;53815.63;;;-139.68;100.00
10940;BME280;5522;42.696;23.494;2022-12-29T04:30:44;53841.75;;;-139.68;100.00
10940;BME280;5522;42.696;23.494;2022-12-29T04:33:11;53835.72;;;-139.68;100.00
10940;BME280;5522;42.696;23.494;2022-12-29T04:35:38;53857.84;;;-139.68;100.00
10940;BME280;5522;42.696;23.494;2022-12-29T04:38:05;53841.75;;;-139.68;100.00
10940;BME280;5522;42.696;23.494;2022-12-29T04:40:33;53819.63;;;-139.68;100.00
10940;BME280;5522;42.696;23.494;2022-12-29T04:43:00;53811.59;;;-139.68;100.00
10940;BME280;5522;42.696;23.494;2022-12-29T04:45:27;53819.63;;;-139.68;100.00
10940;BME280;5522;42.696;23.494;2022-12-29T04:47:56;53801.53;;;-139.68;100.00
10940;BME280;5522;42.696;23.494;2022-12-29T04:50:23;53851.81;;;-139.68;100.00
10940;BME280;5522;42.696;23.494;2022-12-29T04:52:50;53833.72;;;-139.68;100.00
10940;BME280;5522;42.696;23.494;2022-12-29T04:55:17;53819.63;;;-139.68;100.00
10940;BME280;5522;42.696;23.494;2022-12-29T04:57:45;53823.66;;;-139.68;100.00
10940;BME280;5522;42.696;23.494;2022-12-29T05:00:13;53857.84;;;-139.68;100.00
10940;BME280;5522;42.696;23.494;2022-12-29T05:02:40;53809.59;;;-139.68;100.00
10940;BME280;5522;42.696;23.494;2022-12-29T05:05:07;53861.84;;;-139.68;100.00
10940;BME280;5522;42.696;23.494;2022-12-29T05:07:34;53831.69;;;-139.68;100.00
10940;BME280;5522;42.696;23.494;2022-12-29T05:10:01;53843.75;;;-139.68;100.00
10940;BME280;5522;42.696;23.494;2022-12-29T05:12:29;53821.66;;;-139.68;100.00
10940;BME280;5522;42.696;23.494;2022-12-29T05:14:59;53817.63;;;-139.68;100.00
10940;BME280;5522;42.696;23.494;2022-12-29T05:20:44;53859.84;;;-139.68;100.00
10940;BME280;5522;42.696;23.494;2022-12-29T05:23:11;53831.69;;;-139.68;100.00
10940;BME280;5522;42.696;23.494;2022-12-29T05:25:38;53797.53;;;-139.68;100.00
10940;BME280;5522;42.696;23.494;2022-12-29T05:28:04;53809.59;;;-139.68;100.00
10940;BME280;5522;42.696;23.494;2022-12-29T05:30:33;53863.88;;;-139.68;100.00
10940;BME280;5522;42.696;23.494;2022-12-29T05:33:00;53843.75;;;-139.68;100.00
10940;BME280;5522;42.696;23.494;2022-12-29T05:35:26;53827.69;;;-139.68;100.00
10940;BME280;5522;42.696;23.494;2022-12-29T05:37:53;53807.56;;;-139.68;100.00
10940;BME280;5522;42.696;23.494;2022-12-29T05:40:20;53807.56;;;-139.68;100.00
10940;BME280;5522;42.696;23.494;2022-12-29T05:42:47;53805.56;;;-139.68;100.00
10940;BME280;5522;42.696;23.494;2022-12-29T05:45:14;53827.69;;;-139.68;100.00
10940;BME280;5522;42.696;23.494;2022-12-29T05:47:42;53827.69;;;-139.68;100.00
10940;BME280;5522;42.696;23.494;2022-12-29T05:50:09;53831.69;;;-139.68;100.00
10940;BME280;5522;42.696;23.494;2022-12-29T05:52:45;53839.75;;;-139.68;100.00
10940;BME280;5522;42.696;23.494;2022-12-29T05:55:12;53853.81;;;-139.68;100.00
10940;BME280;5522;42.696;23.494;2022-12-29T05:57:40;53817.63;;;-139.68;100.00
10940;BME280;5522;42.696;23.494;2022-12-29T06:00:08;53833.72;;;-139.68;100.00
10940;BME280;5522;42.696;23.494;2022-12-29T06:02:35;53831.69;;;-139.68;100.00
10940;BME280;5522;42.696;23.494;2022-12-29T06:05:04;53775.41;;;-139.68;100.00
10940;BME280;5522;42.696;23.494;2022-12-29T06:07:31;53845.78;;;-139.68;100.00
10940;BME280;5522;42.696;23.494;2022-12-29T06:09:58;53847.78;;;-139.68;100.00
10940;BME280;5522;42.696;23.494;2022-12-29T06:12:25;53853.81;;;-139.68;100.00
10940;BME280;5522;42.696;23.494;2022-12-29T06:14:52;53847.78;;;-139.68;100.00
10940;BME280;5522;42.696;23.494;2022-12-29T06:17:19;53819.63;;;-139.68;100.00
10940;BME280;5522;42.696;23.494;2022-12-29T06:19:46;53845.78;;;-139.68;100.00
10940;BME280;5522;42.696;23.494;2022-12-29T06:22:14;53831.69;;;-139.68;100.00
10940;BME280;5522;42.696;23.494;2022-12-29T06:24:41;53865.88;;;-139.68;100.00
10940;BME280;5522;42.696;23.494;2022-12-29T06:27:08;53809.59;;;-139.68;100.00
10940;BME280;5522;42.696;23.494;2022-12-29T06:29:35;53849.78;;;-139.68;100.00
10940;BME280;5522;42.696;23.494;2022-12-29T06:32:05;53841.75;;;-139.68;100.00
10940;BME280;5522;42.696;23.494;2022-12-29T06:34:32;53827.69;;;-139.68;100.00
10940;BME280;5522;42.696;23.494;2022-12-29T06:36:59;53817.63;;;-139.68;100.00
10940;BME280;5522;42.696;23.494;2022-12-29T06:39:27;53823.66;;;-139.68;100.00
10940;BME280;5522;42.696;23.494;2022-12-29T06:41:55;53847.78;;;-139.68;100.00
10940;BME280;5522;42.696;23.494;2022-12-29T06:44:21;53861.84;;;-139.68;100.00
10940;BME280;5522;42.696;23.494;2022-12-29T06:46:49;53847.78;;;-139.68;100.00
10940;BME280;5522;42.696;23.494;2022-12-29T06:49:16;53865.88;;;-139.68;100.00
10940;BME280;5522;42.696;23.494;2022-12-29T06:51:43;53835.72;;;-139.68;100.00
10940;BME280;5522;42.696;23.494;2022-12-29T06:54:11;53823.66;;;-139.68;100.00
10940;BME280;5522;42.696;23.494;2022-12-29T06:56:39;53843.75;;;-139.68;100.00
10940;BME280;5522;42.696;23.494;2022-12-29T06:59:06;53892.00;;;-139.68;100.00
10940;BME280;5522;42.696;23.494;2022-12-29T07:01:34;53865.88;;;-139.68;100.00
10940;BME280;5522;42.696;23.494;2022-12-29T07:04:01;53851.81;;;-139.68;99.39
10940;BME280;5522;42.696;23.494;2022-12-29T07:06:28;53892.00;;;-139.68;89.84
10940;BME280;5522;42.696;23.494;2022-12-29T07:08:55;53902.06;;;-139.68;82.40
10940;BME280;5522;42.696;23.494;2022-12-29T07:11:22;53881.97;;;-139.68;71.54
10940;BME280;5522;42.696;23.494;2022-12-29T07:13:51;53888.00;;;-139.68;62.56
10940;BME280;5522;42.696;23.494;2022-12-29T07:16:18;53877.94;;;-139.68;55.86
10940;BME280;5522;42.696;23.494;2022-12-29T07:18:45;53865.88;;;-139.68;54.64
10940;BME280;5522;42.696;23.494;2022-12-29T07:21:12;53900.06;;;-139.68;54.45
10940;BME280;5522;42.696;23.494;2022-12-29T07:23:39;53877.94;;;-139.68;52.96
10940;BME280;5522;42.696;23.494;2022-12-29T07:26:08;53837.72;;;-139.68;51.67
10940;BME280;5522;42.696;23.494;2022-12-29T07:28:36;53888.00;;;-139.68;51.63
10940;BME280;5522;42.696;23.494;2022-12-29T07:31:06;53894.03;;;-139.68;52.30
10940;BME280;5522;42.696;23.494;2022-12-29T07:33:33;53900.06;;;-139.68;49.52
10940;BME280;5522;42.696;23.494;2022-12-29T07:36:00;53900.06;;;-139.68;47.88
10940;BME280;5522;42.696;23.494;2022-12-29T07:38:27;53871.91;;;-139.68;49.43
10940;BME280;5522;42.696;23.494;2022-12-29T07:40:56;53904.06;;;-139.68;51.48
10940;BME280;5522;42.696;23.494;2022-12-29T07:43:25;53883.97;;;-139.68;53.98
10940;BME280;5522;42.696;23.494;2022-12-29T07:45:52;53851.81;;;-139.68;53.10
10940;BME280;5522;42.696;23.494;2022-12-29T07:48:21;53881.97;;;-139.68;57.33
10940;BME280;5522;42.696;23.494;2022-12-29T07:50:48;53871.91;;;-139.68;60.62
10940;BME280;5522;42.696;23.494;2022-12-29T07:53:15;53847.78;;;-139.68;58.40
10940;BME280;5522;42.696;23.494;2022-12-29T07:55:42;53908.09;;;-139.68;54.81
10940;BME280;5522;42.696;23.494;2022-12-29T07:58:09;53900.06;;;-139.68;51.29
10940;BME280;5522;42.696;23.494;2022-12-29T08:00:36;53851.81;;;-139.68;52.51
10940;BME280;5522;42.696;23.494;2022-12-29T08:03:04;53869.91;;;-139.68;52.12
10940;BME280;5522;42.696;23.494;2022-12-29T08:05:33;53871.91;;;-139.68;52.82
10940;BME280;5522;42.696;23.494;2022-12-29T08:08:00;53863.88;;;-139.68;48.08
10940;BME280;5522;42.696;23.494;2022-12-29T08:10:27;53875.94;;;-139.68;46.36
10940;BME280;5522;42.696;23.494;2022-12-29T08:12:54;53926.19;;;-139.68;45.59
10940;BME280;5522;42.696;23.494;2022-12-29T08:15:21;53906.06;;;-139.68;44.31
10940;BME280;5522;42.696;23.494;2022-12-29T08:17:48;53908.09;;;-139.68;43.12
10940;BME280;5522;42.696;23.494;2022-12-29T08:20:16;53900.06;;;-139.68;41.63
10940;BME280;5522;42.696;23.494;2022-12-29T08:22:44;53904.06;;;-139.68;41.28
10940;BME280;5522;42.696;23.494;2022-12-29T08:25:11;53952.31;;;-139.68;40.00
10940;BME280;5522;42.696;23.494;2022-12-29T08:27:38;53914.13;;;-139.68;38.76
10940;BME280;5522;42.696;23.494;2022-12-29T08:30:05;53881.97;;;-139.68;38.49
10940;BME280;5522;42.696;23.494;2022-12-29T08:32:33;53932.22;;;-139.68;36.60
10940;BME280;5522;42.696;23.494;2022-12-29T08:35:00;53888.00;;;-139.68;35.64
10940;BME280;5522;42.696;23.494;2022-12-29T08:37:27;53976.44;;;-139.68;34.68
10940;BME280;5522;42.696;23.494;2022-12-29T08:39:55;53920.16;;;-139.68;35.66
10940;BME280;5522;42.696;23.494;2022-12-29T08:42:23;53942.25;;;-139.68;37.63
10940;BME280;5522;42.696;23.494;2022-12-29T08:44:50;53952.31;;;-139.68;36.46
10940;BME280;5522;42.696;23.494;2022-12-29T08:47:17;53936.22;;;-139.68;36.66
10940;BME280;5522;42.696;23.494;2022-12-29T08:49:44;53988.50;;;-139.68;34.69
10940;BME280;5522;42.696;23.494;2022-12-29T08:52:11;53978.47;;;-139.68;34.95
10940;BME280;5522;42.696;23.494;2022-12-29T08:54:38;53940.25;;;-139.68;33.71
10940;BME280;5522;42.696;23.494;2022-12-29T08:57:06;53960.38;;;-139.68;34.47
10940;BME280;5522;42.696;23.494;2022-12-29T08:59:33;53904.06;;;-139.68;33.68
10940;BME280;5522;42.696;23.494;2022-12-29T09:02:00;53926.19;;;-139.68;34.57
10940;BME280;5522;42.696;23.494;2022-12-29T09:04:28;53938.25;;;-139.68;33.73
10940;BME280;5522;42.696;23.494;2022-12-29T09:06:55;53980.47;;;-139.68;35.06
10940;BME280;5522;42.696;23.494;2022-12-29T09:09:22;53980.47;;;-139.68;35.10
10940;BME280;5522;42.696;23.494;2022-12-29T09:11:49;53936.22;;;-139.68;35.16
10940;BME280;5522;42.696;23.494;2022-12-29T09:14:17;53926.19;;;-139.68;33.99
10940;BME280;5522;42.696;23.494;2022-12-29T09:16:44;53918.16;;;-139.68;33.86
10940;BME280;5522;42.696;23.494;2022-12-29T09:19:30;53924.16;;;-139.68;33.87
10940;BME280;5522;42.696;23.494;2022-12-29T09:21:57;53912.13;;;-139.68;33.82
10940;BME280;5522;42.696;23.494;2022-12-29T09:24:24;53908.09;;;-139.68;33.15
10940;BME280;5522;42.696;23.494;2022-12-29T09:26:51;53948.31;;;-139.68;33.40
10940;BME280;5522;42.696;23.494;2022-12-29T09:29:19;53958.34;;;-139.68;34.62
10940;BME280;5522;42.696;23.494;2022-12-29T09:31:46;53932.22;;;-139.68;33.92
10940;BME280;5522;42.696;23.494;2022-12-29T09:34:13;53900.06;;;-139.68;32.76
10940;BME280;5522;42.696;23.494;2022-12-29T09:36:40;53932.22;;;-139.68;33.65
10940;BME280;5522;42.696;23.494;2022-12-29T09:39:07;53964.38;;;-139.68;34.22
10940;BME280;5522;42.696;23.494;2022-12-29T09:41:38;53940.25;;;-139.68;35.17
10940;BME280;5522;42.696;23.494;2022-12-29T09:44:13;53944.28;;;-139.68;34.29
10940;BME280;5522;42.696;23.494;2022-12-29T09:46:47;53936.22;;;-139.68;34.25
10940;BME280;5522;42.696;23.494;2022-12-29T09:49:22;53992.53;;;-139.68;35.03
10940;BME280;5522;42.696;23.494;2022-12-29T09:51:52;53988.50;;;-139.68;33.85
10940;BME280;5522;42.696;23.494;2022-12-29T09:54:26;53960.38;;;-139.68;33.36
10940;BME280;5522;42.696;23.494;2022-12-29T09:56:57;53972.41;;;-139.68;33.25
10940;BME280;5522;42.696;23.494;2022-12-29T09:59:29;53974.44;;;-139.68;32.79
10940;BME280;5522;42.696;23.494;2022-12-29T10:02:08;53948.31;;;-139.68;32.78
10940;BME280;5522;42.696;23.494;2022-12-29T10:04:40;53928.19;;;-139.68;33.92
10940;BME280;5522;42.696;23.494;2022-12-29T10:07:13;53930.22;;;-139.68;33.93
10940;BME280;5522;42.696;23.494;2022-12-29T10:09:51;53972.41;;;-139.68;32.81
10940;BME280;5522;42.696;23.494;2022-12-29T10:12:29;53958.34;;;-139.68;32.62
10940;BME280;5522;42.696;23.494;2022-12-29T10:15:03;53960.38;;;-139.68;33.04
10940;BME280;5522;42.696;23.494;2022-12-29T10:17:39;53956.34;;;-139.68;33.60
10940;BME280;5522;42.696;23.494;2022-12-29T10:20:19;53946.28;;;-139.68;32.98
10940;BME280;5522;42.696;23.494;2022-12-29T10:23:01;53922.16;;;-139.68;32.64
10940;BME280;5522;42.696;23.494;2022-12-29T10:25:34;53936.22;;;-139.68;33.43
10940;BME280;5522;42.696;23.494;2022-12-29T10:28:17;53946.28;;;-139.68;32.24
10940;BME280;5522;42.696;23.494;2022-12-29T10:30:47;53956.34;;;-139.68;33.45
10940;BME280;5522;42.696;23.494;2022-12-29T10:33:19;53954.31;;;-139.68;33.46
10940;BME280;5522;42.696;23.494;2022-12-29T10:35:50;53952.31;;;-139.68;32.99
10940;BME280;5522;42.696;23.494;2022-12-29T10:38:23;53924.16;;;-139.68;34.25
10940;BME280;5522;42.696;23.494;2022-12-29T10:40:58;53944.28;;;-139.68;35.21
10940;BME280;5522;42.696;23.494;2022-12-29T10:43:28;53916.13;;;-139.68;34.87
10940;BME280;5522;42.696;23.494;2022-12-29T10:45:58;53932.22;;;-139.68;33.70
10940;BME280;5522;42.696;23.494;2022-12-29T10:48:31;53948.31;;;-139.68;33.31
10940;BME280;5522;42.696;23.494;2022-12-29T10:50:59;53920.16;;;-139.68;33.41
10940;BME280;5522;42.696;23.494;2022-12-29T10:53:34;53940.25;;;-139.68;32.57
10940;BME280;5522;42.696;23.494;2022-12-29T10:56:05;53960.38;;;-139.68;33.52
10940;BME280;5522;42.696;23.494;2022-12-29T10:58:41;53940.25;;;-139.68;33.51
10940;BME280;5522;42.696;23.494;2022-12-29T11:01:11;53942.25;;;-139.68;33.18
10940;BME280;5522;42.696;23.494;2022-12-29T11:03:53;53950.31;;;-139.68;32.17
10940;BME280;5522;42.696;23.494;2022-12-29T11:06:27;53956.34;;;-139.68;32.19
10940;BME280;5522;42.696;23.494;2022-12-29T11:08:57;53916.13;;;-139.68;32.52
10940;BME280;5522;42.696;23.494;2022-12-29T11:11:27;53932.22;;;-139.68;33.26
10940;BME280;5522;42.696;23.494;2022-12-29T11:13:59;53980.47;;;-139.68;33.56
10940;BME280;5522;42.696;23.494;2022-12-29T11:16:30;53926.19;;;-139.68;33.98
10940;BME280;5522;42.696;23.494;2022-12-29T11:18:59;53952.31;;;-139.68;33.41
10940;BME280;5522;42.696;23.494;2022-12-29T11:21:31;53958.34;;;-139.68;32.76
10940;BME280;5522;42.696;23.494;2022-12-29T11:23:59;53948.31;;;-139.68;33.18
10940;BME280;5522;42.696;23.494;2022-12-29T11:26:27;53879.94;;;-139.68;33.09
10940;BME280;5522;42.696;23.494;2022-12-29T11:29:22;53940.25;;;-139.68;32.46
10940;BME280;5522;42.696;23.494;2022-12-29T11:31:51;53912.13;;;-139.68;32.69
10940;BME280;5522;42.696;23.494;2022-12-29T11:34:23;53924.16;;;-139.68;33.03
10940;BME280;5522;42.696;23.494;2022-12-29T11:36:52;53944.28;;;-139.68;33.51
10940;BME280;5522;42.696;23.494;2022-12-29T11:39:37;53920.16;;;-139.68;33.51
10940;BME280;5522;42.696;23.494;2022-12-29T11:42:12;53936.22;;;-139.68;33.06
10940;BME280;5522;42.696;23.494;2022-12-29T11:44:43;53952.31;;;-139.68;33.77
10940;BME280;5522;42.696;23.494;2022-12-29T11:47:20;53978.47;;;-139.68;34.31
10940;BME280;5522;42.696;23.494;2022-12-29T11:49:55;53948.31;;;-139.68;35.33
10940;BME280;5522;42.696;23.494;2022-12-29T11:52:25;53922.16;;;-139.68;37.35
10940;BME280;5522;42.696;23.494;2022-12-29T11:54:53;53940.25;;;-139.68;40.68
10940;BME280;5522;42.696;23.494;2022-12-29T11:57:22;53918.16;;;-139.68;45.39
10940;BME280;5522;42.696;23.494;2022-12-29T11:59:51;53892.00;;;-139.68;52.06
10940;BME280;5522;42.696;23.494;2022-12-29T12:02:35;53900.06;;;-139.68;56.24
10940;BME280;5522;42.696;23.494;2022-12-29T12:05:10;53900.06;;;-139.68;64.96
10940;BME280;5522;42.696;23.494;2022-12-29T12:07:42;53908.09;;;-139.68;66.12
10940;BME280;5522;42.696;23.494;2022-12-29T12:10:17;53906.06;;;-139.68;70.54
10940;BME280;5522;42.696;23.494;2022-12-29T12:12:48;53908.09;;;-139.68;73.72
10940;BME280;5522;42.696;23.494;2022-12-29T12:15:20;53908.09;;;-139.68;73.47
10940;BME280;5522;42.696;23.494;2022-12-29T12:17:52;53926.19;;;-139.68;74.81
10940;BME280;5522;42.696;23.494;2022-12-29T12:20:25;53916.13;;;-139.68;73.32
10940;BME280;5522;42.696;23.494;2022-12-29T12:23:01;53883.97;;;-139.68;73.22
10940;BME280;5522;42.696;23.494;2022-12-29T12:25:33;53928.19;;;-139.68;74.95
10940;BME280;5522;42.696;23.494;2022-12-29T12:28:08;53936.22;;;-139.68;73.83
10940;BME280;5522;42.696;23.494;2022-12-29T12:30:40;53900.06;;;-139.68;78.46
10940;BME280;5522;42.696;23.494;2022-12-29T12:33:16;53908.09;;;-139.68;80.45
10940;BME280;5522;42.696;23.494;2022-12-29T12:35:57;53883.97;;;-139.68;80.63
10940;BME280;5522;42.696;23.494;2022-12-29T12:38:36;53924.16;;;-139.68;77.91
10940;BME280;5522;42.696;23.494;2022-12-29T12:41:08;53902.06;;;-139.68;78.04
10940;BME280;5522;42.696;23.494;2022-12-29T12:43:41;53904.06;;;-139.68;77.00
10940;BME280;5522;42.696;23.494;2022-12-29T12:46:37;53948.31;;;-139.68;75.86
10940;BME280;5522;42.696;23.494;2022-12-29T12:49:30;53924.16;;;-139.68;70.81
10940;BME280;5522;42.696;23.494;2022-12-29T12:52:08;53940.25;;;-139.68;70.71
10940;BME280;5522;42.696;23.494;2022-12-29T12:54:53;53922.16;;;-139.68;72.04
10940;BME280;5522;42.696;23.494;2022-12-29T12:57:33;53890.00;;;-139.68;71.95
10940;BME280;5522;42.696;23.494;2022-12-29T13:00:07;53910.09;;;-139.68;72.33
10940;BME280;5522;42.696;23.494;2022-12-29T13:02:43;53940.25;;;-139.68;73.06
10940;BME280;5522;42.696;23.494;2022-12-29T13:05:47;53890.00;;;-139.68;74.97
10940;BME280;5522;42.696;23.494;2022-12-29T13:08:43;53900.06;;;-139.68;75.88